sensor_id;sensor_type;location;lat;lon;timestamp;pressure;altitude;pressure_sealevel;temperature;humidity
1401;BME280;46518;48.842;8.926;2022-08-18T00:01:14;96840.47;;;19.84;82.72
1401;BME280;46518;48.842;8.926;2022-08-18T00:03:45;96835.06;;;19.58;83.75
1401;BME280;46518;48.842;8.926;2022-08-18T00:06:30;96830.50;;;19.50;85.09
1401;BME280;46518;48.842;8.926;2022-08-18T00:09:00;96836.72;;;19.36;85.82
1401;BME280;46518;48.842;8.926;2022-08-18T00:11:30;96845.13;;;19.21;86.30
1401;BME280;46518;48.842;8.926;2022-08-18T00:14:11;96853.13;;;19.21;87.00
1401;BME280;46518;48.842;8.926;2022-08-18T00:16:49;96850.25;;;19.09;87.59
1401;BME280;46518;48.842;8.926;2022-08-18T00:19:18;96857.59;;;19.03;87.64
1401;BME280;46518;48.842;8.926;2022-08-18T00:22:08;96844.75;;;19.05;87.93
1401;BME280;46518;48.842;8.926;2022-08-18T00:24:41;96843.00;;;19.01;88.19
1401;BME280;46518;48.842;8.926;2022-08-18T00:27:16;96837.06;;;19.04;88.00
1401;BME280;46518;48.842;8.926;2022-08-18T00:29:50;96831.09;;;19.07;88.14
1401;BME280;46518;48.842;8.926;2022-08-18T00:32:20;96838.03;;;19.08;88.00
1401;BME280;46518;48.842;8.926;2022-08-18T00:34:49;96830.31;;;19.06;87.64
1401;BME280;46518;48.842;8.926;2022-08-18T00:37:19;96829.66;;;19.01;87.56
1401;BME280;46518;48.842;8.926;2022-08-18T00:39:49;96827.34;;;19.08;87.50
1401;BME280;46518;48.842;8.926;2022-08-18T00:42:21;96822.84;;;19.17;87.04
1401;BME280;46518;48.842;8.926;2022-08-18T00:44:59;96818.59;;;19.16;86.51
1401;BME280;46518;48.842;8.926;2022-08-18T00:47:29;96823.09;;;19.47;85.91
1401;BME280;46518;48.842;8.926;2022-08-18T00:50:12;96828.53;;;19.73;84.63
1401;BME280;46518;48.842;8.926;2022-08-18T00:52:49;96829.19;;;19.96;83.63
1401;BME280;46518;48.842;8.926;2022-08-18T00:55:20;96815.53;;;20.15;83.05
1401;BME280;46518;48.842;8.926;2022-08-18T00:57:52;96809.09;;;20.24;82.05
1401;BME280;46518;48.842;8.926;2022-08-18T01:00:22;96805.47;;;20.29;81.49
1401;BME280;46518;48.842;8.926;2022-08-18T01:02:54;96812.69;;;20.46;81.08
1401;BME280;46518;48.842;8.926;2022-08-18T01:05:28;96809.38;;;20.32;80.13
1401;BME280;46518;48.842;8.926;2022-08-18T01:08:01;96794.94;;;20.24;79.94
1401;BME280;46518;48.842;8.926;2022-08-18T01:10:32;96791.81;;;20.22;79.90
1401;BME280;46518;48.842;8.926;2022-08-18T01:13:01;96785.34;;;20.32;80.12
1401;BME280;46518;48.842;8.926;2022-08-18T01:15:29;96794.28;;;20.53;79.94
1401;BME280;46518;48.842;8.926;2022-08-18T01:17:59;96792.38;;;20.54;79.92
1401;BME280;46518;48.842;8.926;2022-08-18T01:20:51;96799.03;;;20.56;79.93
1401;BME280;46518;48.842;8.926;2022-08-18T01:23:43;96799.00;;;20.39;79.65
1401;BME280;46518;48.842;8.926;2022-08-18T01:26:18;96801.09;;;20.24;80.44
1401;BME280;46518;48.842;8.926;2022-08-18T01:28:48;96806.28;;;20.12;80.62
1401;BME280;46518;48.842;8.926;2022-08-18T01:31:33;96800.28;;;20.33;80.36
1401;BME280;46518;48.842;8.926;2022-08-18T01:34:05;96799.97;;;20.43;80.11
1401;BME280;46518;48.842;8.926;2022-08-18T01:36:35;96795.06;;;20.54;80.33
1401;BME280;46518;48.842;8.926;2022-08-18T01:39:28;96784.53;;;20.48;80.21
1401;BME280;46518;48.842;8.926;2022-08-18T01:42:16;96771.97;;;20.32;80.39
1401;BME280;46518;48.842;8.926;2022-08-18T01:44:45;96768.84;;;20.30;80.84
1401;BME280;46518;48.842;8.926;2022-08-18T01:47:14;96768.84;;;20.30;81.26
1401;BME280;46518;48.842;8.926;2022-08-18T01:49:44;96770.88;;;20.33;81.56
1401;BME280;46518;48.842;8.926;2022-08-18T01:52:14;96778.59;;;20.25;81.86
1401;BME280;46518;48.842;8.926;2022-08-18T01:54:49;96783.16;;;20.08;81.65
1401;BME280;46518;48.842;8.926;2022-08-18T01:57:19;96778.44;;;20.13;82.03
1401;BME280;46518;48.842;8.926;2022-08-18T01:59:48;96770.91;;;20.15;82.17
1401;BME280;46518;48.842;8.926;2022-08-18T02:02:25;96773.56;;;20.15;81.83
1401;BME280;46518;48.842;8.926;2022-08-18T02:04:58;96771.53;;;20.03;82.11
1401;BME280;46518;48.842;8.926;2022-08-18T02:07:28;96768.06;;;20.03;82.50
1401;BME280;46518;48.842;8.926;2022-08-18T02:10:04;96765.56;;;19.89;83.25
1401;BME280;46518;48.842;8.926;2022-08-18T02:12:38;96764.28;;;19.87;83.46
1401;BME280;46518;48.842;8.926;2022-08-18T02:15:08;96770.75;;;19.86;83.92
1401;BME280;46518;48.842;8.926;2022-08-18T02:17:37;96776.88;;;19.86;84.34
1401;BME280;46518;48.842;8.926;2022-08-18T02:20:06;96771.31;;;19.65;85.41
1401;BME280;46518;48.842;8.926;2022-08-18T02:22:35;96774.78;;;19.57;86.40
1401;BME280;46518;48.842;8.926;2022-08-18T02:25:06;96769.44;;;19.57;86.46
1401;BME280;46518;48.842;8.926;2022-08-18T02:27:35;96768.66;;;19.65;86.25
1401;BME280;46518;48.842;8.926;2022-08-18T02:30:06;96761.47;;;19.74;85.28
1401;BME280;46518;48.842;8.926;2022-08-18T02:32:34;96760.81;;;19.60;85.51
1401;BME280;46518;48.842;8.926;2022-08-18T02:35:04;96766.06;;;19.34;86.60
1401;BME280;46518;48.842;8.926;2022-08-18T02:37:37;96765.59;;;19.23;87.67
1401;BME280;46518;48.842;8.926;2022-08-18T02:40:10;96763.91;;;18.96;88.90
1401;BME280;46518;48.842;8.926;2022-08-18T02:42:42;96756.84;;;18.91;89.80
1401;BME280;46518;48.842;8.926;2022-08-18T02:45:10;96755.06;;;18.78;90.37
1401;BME280;46518;48.842;8.926;2022-08-18T02:47:39;96754.03;;;18.65;91.20
1401;BME280;46518;48.842;8.926;2022-08-18T02:50:10;96762.69;;;18.71;91.69
1401;BME280;46518;48.842;8.926;2022-08-18T02:52:39;96759.66;;;18.64;92.18
1401;BME280;46518;48.842;8.926;2022-08-18T02:55:09;96754.31;;;18.64;92.44
1401;BME280;46518;48.842;8.926;2022-08-18T02:57:40;96755.22;;;18.82;92.32
1401;BME280;46518;48.842;8.926;2022-08-18T03:00:10;96752.13;;;18.88;91.50
1401;BME280;46518;48.842;8.926;2022-08-18T03:02:44;96752.41;;;18.87;91.51
1401;BME280;46518;48.842;8.926;2022-08-18T03:05:13;96754.00;;;18.88;91.30
1401;BME280;46518;48.842;8.926;2022-08-18T03:07:42;96759.63;;;18.86;90.98
1401;BME280;46518;48.842;8.926;2022-08-18T03:10:12;96764.03;;;18.82;91.09
1401;BME280;46518;48.842;8.926;2022-08-18T03:13:00;96762.91;;;18.83;91.27
1401;BME280;46518;48.842;8.926;2022-08-18T03:15:28;96749.28;;;18.85;91.48
1401;BME280;46518;48.842;8.926;2022-08-18T03:17:57;96752.28;;;18.92;91.41
1401;BME280;46518;48.842;8.926;2022-08-18T03:20:25;96748.28;;;19.12;90.03
1401;BME280;46518;48.842;8.926;2022-08-18T03:22:57;96738.75;;;19.20;89.43
1401;BME280;46518;48.842;8.926;2022-08-18T03:25:42;96732.16;;;19.26;88.86
1401;BME280;46518;48.842;8.926;2022-08-18T03:28:11;96732.00;;;19.22;88.85
1401;BME280;46518;48.842;8.926;2022-08-18T03:30:39;96716.44;;;19.15;88.92
1401;BME280;46518;48.842;8.926;2022-08-18T03:33:08;96725.91;;;19.30;88.75
1401;BME280;46518;48.842;8.926;2022-08-18T03:35:36;96722.13;;;19.31;88.29
1401;BME280;46518;48.842;8.926;2022-08-18T03:38:04;96724.38;;;19.55;87.51
1401;BME280;46518;48.842;8.926;2022-08-18T03:40:32;96715.41;;;19.51;87.22
1401;BME280;46518;48.842;8.926;2022-08-18T03:43:03;96721.69;;;19.55;86.19
1401;BME280;46518;48.842;8.926;2022-08-18T03:45:53;96713.72;;;19.73;85.67
1401;BME280;46518;48.842;8.926;2022-08-18T03:48:21;96704.44;;;19.79;84.72
1401;BME280;46518;48.842;8.926;2022-08-18T03:50:51;96708.38;;;19.81;84.13
1401;BME280;46518;48.842;8.926;2022-08-18T03:53:19;96708.53;;;19.94;83.57
1401;BME280;46518;48.842;8.926;2022-08-18T03:55:47;96712.16;;;19.98;83.60
1401;BME280;46518;48.842;8.926;2022-08-18T03:58:17;96714.97;;;20.01;82.98
1401;BME280;46518;48.842;8.926;2022-08-18T04:00:45;96722.81;;;20.15;82.67
1401;BME280;46518;48.842;8.926;2022-08-18T04:03:13;96719.50;;;20.18;82.25
1401;BME280;46518;48.842;8.926;2022-08-18T04:05:41;96725.78;;;20.22;82.02
1401;BME280;46518;48.842;8.926;2022-08-18T04:08:10;96719.16;;;20.29;81.80
1401;BME280;46518;48.842;8.926;2022-08-18T04:10:39;96714.78;;;20.15;81.95
1401;BME280;46518;48.842;8.926;2022-08-18T04:13:11;96716.34;;;20.16;81.82
1401;BME280;46518;48.842;8.926;2022-08-18T04:15:41;96716.72;;;19.97;81.94
1401;BME280;46518;48.842;8.926;2022-08-18T04:18:09;96714.50;;;20.08;81.75
1401;BME280;46518;48.842;8.926;2022-08-18T04:20:38;96707.09;;;20.14;81.30
1401;BME280;46518;48.842;8.926;2022-08-18T04:23:25;96705.06;;;20.19;81.14
1401;BME280;46518;48.842;8.926;2022-08-18T04:25:58;96683.03;;;20.14;80.66
1401;BME280;46518;48.842;8.926;2022-08-18T04:28:27;96706.91;;;20.28;80.73
1401;BME280;46518;48.842;8.926;2022-08-18T04:30:57;96708.13;;;20.39;80.25
1401;BME280;46518;48.842;8.926;2022-08-18T04:33:26;96708.13;;;20.39;79.90
1401;BME280;46518;48.842;8.926;2022-08-18T04:35:54;96718.34;;;20.45;80.05
1401;BME280;46518;48.842;8.926;2022-08-18T04:38:22;96719.47;;;20.44;80.49
1401;BME280;46518;48.842;8.926;2022-08-18T04:40:51;96729.03;;;20.45;80.39
1401;BME280;46518;48.842;8.926;2022-08-18T04:43:19;96733.63;;;20.36;80.83
1401;BME280;46518;48.842;8.926;2022-08-18T04:45:47;96736.75;;;20.38;80.53
1401;BME280;46518;48.842;8.926;2022-08-18T04:48:18;96747.16;;;20.40;80.84
1401;BME280;46518;48.842;8.926;2022-08-18T04:50:48;96759.72;;;20.31;80.76
1401;BME280;46518;48.842;8.926;2022-08-18T04:53:16;96764.13;;;20.09;81.74
1401;BME280;46518;48.842;8.926;2022-08-18T04:56:02;96775.28;;;19.94;82.68
1401;BME280;46518;48.842;8.926;2022-08-18T04:58:30;96772.75;;;19.63;84.56
1401;BME280;46518;48.842;8.926;2022-08-18T05:01:00;96775.53;;;19.49;86.02
1401;BME280;46518;48.842;8.926;2022-08-18T05:03:29;96780.09;;;19.48;86.84
1401;BME280;46518;48.842;8.926;2022-08-18T05:05:58;96781.81;;;19.53;86.88
1401;BME280;46518;48.842;8.926;2022-08-18T05:08:26;96783.72;;;19.61;86.45
1401;BME280;46518;48.842;8.926;2022-08-18T05:10:55;96788.28;;;19.60;86.59
1401;BME280;46518;48.842;8.926;2022-08-18T05:13:30;96778.97;;;19.40;87.06
1401;BME280;46518;48.842;8.926;2022-08-18T05:15:59;96784.78;;;19.43;87.45
1401;BME280;46518;48.842;8.926;2022-08-18T05:18:51;96779.44;;;19.43;87.67
1401;BME280;46518;48.842;8.926;2022-08-18T05:21:21;96774.75;;;19.48;87.65
1401;BME280;46518;48.842;8.926;2022-08-18T05:23:51;96771.63;;;19.55;87.44
1401;BME280;46518;48.842;8.926;2022-08-18T05:26:19;96778.53;;;19.56;87.71
1401;BME280;46518;48.842;8.926;2022-08-18T05:28:48;96771.00;;;19.58;87.79
1401;BME280;46518;48.842;8.926;2022-08-18T05:31:30;96770.84;;;19.63;87.52
1401;BME280;46518;48.842;8.926;2022-08-18T05:34:00;96765.88;;;19.70;87.04
1401;BME280;46518;48.842;8.926;2022-08-18T05:36:48;96761.44;;;19.66;87.37
1401;BME280;46518;48.842;8.926;2022-08-18T05:39:22;96754.34;;;19.61;87.81
1401;BME280;46518;48.842;8.926;2022-08-18T05:41:53;96754.69;;;19.59;87.32
1401;BME280;46518;48.842;8.926;2022-08-18T05:44:25;96754.84;;;19.72;87.00
1401;BME280;46518;48.842;8.926;2022-08-18T05:46:55;96744.66;;;19.74;87.00
1401;BME280;46518;48.842;8.926;2022-08-18T05:49:27;96739.50;;;19.77;87.06
1401;BME280;46518;48.842;8.926;2022-08-18T05:51:59;96739.34;;;19.82;87.00
1401;BME280;46518;48.842;8.926;2022-08-18T05:54:35;96741.81;;;19.96;86.81
1401;BME280;46518;48.842;8.926;2022-08-18T05:57:24;96743.72;;;20.04;86.14
1401;BME280;46518;48.842;8.926;2022-08-18T05:59:56;96739.28;;;20.26;85.04
1401;BME280;46518;48.842;8.926;2022-08-18T06:02:30;96733.47;;;20.33;83.72
1401;BME280;46518;48.842;8.926;2022-08-18T06:05:05;96724.16;;;20.39;81.64
1401;BME280;46518;48.842;8.926;2022-08-18T06:07:39;96730.59;;;20.46;80.65
1401;BME280;46518;48.842;8.926;2022-08-18T06:10:09;96738.00;;;20.41;78.15
1401;BME280;46518;48.842;8.926;2022-08-18T06:12:41;96740.84;;;20.44;77.05
1401;BME280;46518;48.842;8.926;2022-08-18T06:15:15;96733.44;;;20.50;76.76
1401;BME280;46518;48.842;8.926;2022-08-18T06:17:58;96735.16;;;20.63;76.54
1401;BME280;46518;48.842;8.926;2022-08-18T06:20:34;96733.25;;;20.64;75.66
1401;BME280;46518;48.842;8.926;2022-08-18T06:23:19;96740.78;;;20.71;75.56
1401;BME280;46518;48.842;8.926;2022-08-18T06:26:01;96747.25;;;20.70;76.18
1401;BME280;46518;48.842;8.926;2022-08-18T06:28:38;96758.03;;;20.90;76.16
1401;BME280;46518;48.842;8.926;2022-08-18T06:31:16;96768.25;;;20.97;75.53
1401;BME280;46518;48.842;8.926;2022-08-18T06:33:53;96779.41;;;20.99;75.89
1401;BME280;46518;48.842;8.926;2022-08-18T06:36:34;96791.81;;;21.04;75.64
1401;BME280;46518;48.842;8.926;2022-08-18T06:39:11;96781.38;;;21.20;75.28
1401;BME280;46518;48.842;8.926;2022-08-18T06:41:43;96785.31;;;21.14;76.34
1401;BME280;46518;48.842;8.926;2022-08-18T06:44:20;96794.38;;;21.30;75.19
1401;BME280;46518;48.842;8.926;2022-08-18T06:46:55;96791.19;;;21.37;74.69
1401;BME280;46518;48.842;8.926;2022-08-18T06:49:38;96788.50;;;21.37;74.44
1401;BME280;46518;48.842;8.926;2022-08-18T06:52:24;96775.06;;;21.24;74.58
1401;BME280;46518;48.842;8.926;2022-08-18T06:54:54;96773.97;;;21.17;75.06
1401;BME280;46518;48.842;8.926;2022-08-18T06:57:26;96761.69;;;21.16;75.27
1401;BME280;46518;48.842;8.926;2022-08-18T07:00:03;96765.31;;;21.20;75.15
1401;BME280;46518;48.842;8.926;2022-08-18T07:02:41;96770.84;;;21.15;75.63
1401;BME280;46518;48.842;8.926;2022-08-18T07:05:19;96768.72;;;20.99;76.77
1401;BME280;46518;48.842;8.926;2022-08-18T07:08:09;96774.53;;;20.93;79.17
1401;BME280;46518;48.842;8.926;2022-08-18T07:10:41;96778.28;;;21.00;78.45
1401;BME280;46518;48.842;8.926;2022-08-18T07:13:16;96779.50;;;21.11;78.48
1401;BME280;46518;48.842;8.926;2022-08-18T07:15:45;96781.06;;;21.13;77.73
1401;BME280;46518;48.842;8.926;2022-08-18T07:18:22;96789.28;;;21.07;78.70
1401;BME280;46518;48.842;8.926;2022-08-18T07:20:53;96800.34;;;20.88;80.19
1401;BME280;46518;48.842;8.926;2022-08-18T07:23:27;96803.56;;;20.73;81.09
1401;BME280;46518;48.842;8.926;2022-08-18T07:26:05;96812.38;;;20.65;81.39
1401;BME280;46518;48.842;8.926;2022-08-18T07:28:38;96805.28;;;20.69;81.23
1401;BME280;46518;48.842;8.926;2022-08-18T07:31:12;96814.06;;;20.78;81.06
1401;BME280;46518;48.842;8.926;2022-08-18T07:33:48;96811.41;;;20.78;81.23
1401;BME280;46518;48.842;8.926;2022-08-18T07:36:19;96817.81;;;20.86;81.36
1401;BME280;46518;48.842;8.926;2022-08-18T07:38:54;96819.13;;;20.80;81.53
1401;BME280;46518;48.842;8.926;2022-08-18T07:41:26;96819.25;;;20.83;82.25
1401;BME280;46518;48.842;8.926;2022-08-18T07:44:02;96822.53;;;20.89;82.61
1401;BME280;46518;48.842;8.926;2022-08-18T07:46:42;96816.41;;;20.97;81.67
1401;BME280;46518;48.842;8.926;2022-08-18T07:49:17;96829.31;;;20.95;82.13
1401;BME280;46518;48.842;8.926;2022-08-18T07:51:53;96830.72;;;20.84;82.16
1401;BME280;46518;48.842;8.926;2022-08-18T07:54:38;96838.00;;;20.75;82.63
1401;BME280;46518;48.842;8.926;2022-08-18T07:57:27;96836.91;;;20.67;83.25
1401;BME280;46518;48.842;8.926;2022-08-18T08:00:15;96824.50;;;20.45;83.99
1401;BME280;46518;48.842;8.926;2022-08-18T08:03:26;96829.66;;;20.50;84.76
1401;BME280;46518;48.842;8.926;2022-08-18T08:06:03;96840.66;;;20.48;84.33
1401;BME280;46518;48.842;8.926;2022-08-18T08:08:38;96826.09;;;20.55;83.36
1401;BME280;46518;48.842;8.926;2022-08-18T08:11:22;96831.56;;;20.50;84.08
1401;BME280;46518;48.842;8.926;2022-08-18T08:14:05;96830.50;;;20.59;84.10
1401;BME280;46518;48.842;8.926;2022-08-18T08:16:43;96828.13;;;20.58;84.21
1401;BME280;46518;48.842;8.926;2022-08-18T08:19:28;96825.75;;;20.56;84.33
1401;BME280;46518;48.842;8.926;2022-08-18T08:22:27;96809.53;;;20.53;84.59
1401;BME280;46518;48.842;8.926;2022-08-18T08:25:04;96800.91;;;20.56;84.59
1401;BME280;46518;48.842;8.926;2022-08-18T08:28:05;96800.59;;;20.57;84.43
1401;BME280;46518;48.842;8.926;2022-08-18T08:30:40;96816.63;;;20.66;84.40
1401;BME280;46518;48.842;8.926;2022-08-18T08:33:21;96815.31;;;20.81;84.18
1401;BME280;46518;48.842;8.926;2022-08-18T08:35:55;96811.41;;;20.87;83.81
1401;BME280;46518;48.842;8.926;2022-08-18T08:38:36;96805.75;;;20.80;83.65
1401;BME280;46518;48.842;8.926;2022-08-18T08:41:14;96802.44;;;20.83;83.86
1401;BME280;46518;48.842;8.926;2022-08-18T08:44:00;96800.53;;;20.92;83.70
1401;BME280;46518;48.842;8.926;2022-08-18T08:46:35;96804.47;;;20.86;83.01
1401;BME280;46518;48.842;8.926;2022-08-18T08:49:11;96804.78;;;20.84;83.22
1401;BME280;46518;48.842;8.926;2022-08-18T08:51:48;96807.44;;;20.93;83.53
1401;BME280;46518;48.842;8.926;2022-08-18T08:54:25;96797.97;;;21.04;83.75
1401;BME280;46518;48.842;8.926;2022-08-18T08:56:58;96798.22;;;21.11;82.86
1401;BME280;46518;48.842;8.926;2022-08-18T08:59:29;96816.34;;;21.15;81.63
1401;BME280;46518;48.842;8.926;2022-08-18T09:02:13;96810.22;;;21.05;81.48
1401;BME280;46518;48.842;8.926;2022-08-18T09:05:12;96822.28;;;21.20;81.97
1401;BME280;46518;48.842;8.926;2022-08-18T09:11:03;96799.25;;;21.28;81.56
1401;BME280;46518;48.842;8.926;2022-08-18T09:13:55;96787.00;;;21.27;82.05
1401;BME280;46518;48.842;8.926;2022-08-18T09:16:55;96760.16;;;21.44;81.30
1401;BME280;46518;48.842;8.926;2022-08-18T09:19:44;96753.31;;;21.56;79.88
1401;BME280;46518;48.842;8.926;2022-08-18T09:22:23;96735.91;;;21.41;80.01
1401;BME280;46518;48.842;8.926;2022-08-18T09:24:56;96740.50;;;21.61;80.50
1401;BME280;46518;48.842;8.926;2022-08-18T09:27:37;96749.16;;;21.67;80.39
1401;BME280;46518;48.842;8.926;2022-08-18T09:30:44;96772.66;;;21.61;80.51
1401;BME280;46518;48.842;8.926;2022-08-18T09:33:30;96766.50;;;21.61;81.43
1401;BME280;46518;48.842;8.926;2022-08-18T09:36:37;96771.69;;;21.66;81.56
1401;BME280;46518;48.842;8.926;2022-08-18T09:39:20;96781.03;;;21.81;80.19
1401;BME280;46518;48.842;8.926;2022-08-18T09:42:11;96783.50;;;21.86;79.10
1401;BME280;46518;48.842;8.926;2022-08-18T09:45:04;96801.28;;;21.90;78.26
1401;BME280;46518;48.842;8.926;2022-08-18T09:47:56;96798.16;;;21.88;78.86
1401;BME280;46518;48.842;8.926;2022-08-18T09:50:50;96804.16;;;22.06;79.26
1401;BME280;46518;48.842;8.926;2022-08-18T09:53:52;96799.94;;;22.26;77.57
1401;BME280;46518;48.842;8.926;2022-08-18T09:59:52;96806.38;;;22.46;75.40
1401;BME280;46518;48.842;8.926;2022-08-18T10:05:55;96817.25;;;22.50;76.34
1401;BME280;46518;48.842;8.926;2022-08-18T10:11:25;96815.06;;;22.64;74.46
1401;BME280;46518;48.842;8.926;2022-08-18T10:14:18;96808.16;;;22.75;73.97
1401;BME280;46518;48.842;8.926;2022-08-18T10:16:56;96798.69;;;22.90;73.53
1401;BME280;46518;48.842;8.926;2022-08-18T10:19:55;96797.13;;;22.89;73.23
1401;BME280;46518;48.842;8.926;2022-08-18T10:22:37;96788.16;;;22.85;73.16
1401;BME280;46518;48.842;8.926;2022-08-18T10:25:09;96787.69;;;22.71;74.26
1401;BME280;46518;48.842;8.926;2022-08-18T10:27:52;96777.50;;;22.76;73.08
1401;BME280;46518;48.842;8.926;2022-08-18T10:34:06;96758.66;;;22.85;72.80
1401;BME280;46518;48.842;8.926;2022-08-18T10:36:47;96757.50;;;22.86;72.71
1401;BME280;46518;48.842;8.926;2022-08-18T10:39:22;96748.47;;;22.91;72.43
1401;BME280;46518;48.842;8.926;2022-08-18T10:42:02;96738.97;;;22.93;72.46
1401;BME280;46518;48.842;8.926;2022-08-18T10:44:36;96726.34;;;23.06;72.62
1401;BME280;46518;48.842;8.926;2022-08-18T10:47:09;96736.78;;;23.08;72.27
1401;BME280;46518;48.842;8.926;2022-08-18T10:49:51;96738.47;;;23.12;71.59
1401;BME280;46518;48.842;8.926;2022-08-18T10:55:47;96738.91;;;23.39;70.02
1401;BME280;46518;48.842;8.926;2022-08-18T10:58:32;96733.41;;;23.35;69.79
1401;BME280;46518;48.842;8.926;2022-08-18T11:01:09;96732.06;;;23.41;69.37
1401;BME280;46518;48.842;8.926;2022-08-18T11:04:01;96710.00;;;23.48;68.66
1401;BME280;46518;48.842;8.926;2022-08-18T11:06:43;96723.16;;;23.65;68.11
1401;BME280;46518;48.842;8.926;2022-08-18T11:09:22;96727.06;;;23.68;67.89
1401;BME280;46518;48.842;8.926;2022-08-18T11:11:56;96731.25;;;23.53;67.77
1401;BME280;46518;48.842;8.926;2022-08-18T11:14:50;96730.84;;;23.39;69.31
1401;BME280;46518;48.842;8.926;2022-08-18T11:17:32;96722.84;;;23.67;68.44
1401;BME280;46518;48.842;8.926;2022-08-18T11:20:11;96720.91;;;23.80;67.63
1401;BME280;46518;48.842;8.926;2022-08-18T11:22:50;96720.22;;;23.83;65.56
1401;BME280;46518;48.842;8.926;2022-08-18T11:25:26;96724.38;;;23.80;64.93
1401;BME280;46518;48.842;8.926;2022-08-18T11:27:58;96728.88;;;23.76;66.27
1401;BME280;46518;48.842;8.926;2022-08-18T11:30:31;96731.09;;;23.86;66.07
1401;BME280;46518;48.842;8.926;2022-08-18T11:33:03;96722.13;;;24.10;66.74
1401;BME280;46518;48.842;8.926;2022-08-18T11:35:45;96721.16;;;24.31;64.59
1401;BME280;46518;48.842;8.926;2022-08-18T11:38:15;96719.19;;;24.44;63.50
1401;BME280;46518;48.842;8.926;2022-08-18T11:41:11;96713.91;;;24.47;62.51
1401;BME280;46518;48.842;8.926;2022-08-18T11:43:45;96720.25;;;24.55;62.63
1401;BME280;46518;48.842;8.926;2022-08-18T11:46:22;96702.66;;;24.58;62.30
1401;BME280;46518;48.842;8.926;2022-08-18T11:48:58;96716.63;;;24.63;62.02
1401;BME280;46518;48.842;8.926;2022-08-18T11:51:30;96708.53;;;24.63;61.87
1401;BME280;46518;48.842;8.926;2022-08-18T11:54:01;96706.22;;;24.62;61.77
1401;BME280;46518;48.842;8.926;2022-08-18T11:56:32;96696.06;;;24.55;61.75
1401;BME280;46518;48.842;8.926;2022-08-18T11:59:52;96698.91;;;24.62;61.97
1401;BME280;46518;48.842;8.926;2022-08-18T12:02:26;96694.94;;;24.72;60.90
1401;BME280;46518;48.842;8.926;2022-08-18T12:04:59;96680.84;;;24.79;60.85
1401;BME280;46518;48.842;8.926;2022-08-18T12:07:40;96678.69;;;24.84;61.52
1401;BME280;46518;48.842;8.926;2022-08-18T12:10:26;96673.28;;;25.00;60.87
1401;BME280;46518;48.842;8.926;2022-08-18T12:12:56;96665.97;;;25.01;59.74
1401;BME280;46518;48.842;8.926;2022-08-18T12:15:31;96663.38;;;25.04;60.37
1401;BME280;46518;48.842;8.926;2022-08-18T12:18:13;96640.09;;;24.96;59.54
1401;BME280;46518;48.842;8.926;2022-08-18T12:20:55;96669.72;;;24.96;59.64
1401;BME280;46518;48.842;8.926;2022-08-18T12:23:25;96667.47;;;24.98;59.74
1401;BME280;46518;48.842;8.926;2022-08-18T12:26:05;96671.25;;;25.13;60.74
1401;BME280;46518;48.842;8.926;2022-08-18T12:28:54;96675.44;;;25.26;59.55
1401;BME280;46518;48.842;8.926;2022-08-18T12:31:29;96674.38;;;25.31;58.97
1401;BME280;46518;48.842;8.926;2022-08-18T12:34:14;96667.78;;;25.28;57.86
1401;BME280;46518;48.842;8.926;2022-08-18T12:36:54;96665.81;;;25.45;57.97
1401;BME280;46518;48.842;8.926;2022-08-18T12:39:24;96662.31;;;25.25;56.87
1401;BME280;46518;48.842;8.926;2022-08-18T12:41:52;96661.97;;;25.26;57.04
1401;BME280;46518;48.842;8.926;2022-08-18T12:44:21;96659.56;;;25.40;55.59
1401;BME280;46518;48.842;8.926;2022-08-18T12:46:55;96659.66;;;25.44;54.84
1401;BME280;46518;48.842;8.926;2022-08-18T12:49:25;96659.38;;;25.49;56.19
1401;BME280;46518;48.842;8.926;2022-08-18T12:51:56;96651.06;;;25.58;55.39
1401;BME280;46518;48.842;8.926;2022-08-18T12:54:29;96642.84;;;25.70;54.64
1401;BME280;46518;48.842;8.926;2022-08-18T12:57:01;96650.78;;;25.82;54.98
1401;BME280;46518;48.842;8.926;2022-08-18T12:59:32;96649.41;;;25.89;54.38
1401;BME280;46518;48.842;8.926;2022-08-18T13:02:04;96635.13;;;25.88;52.10
1401;BME280;46518;48.842;8.926;2022-08-18T13:04:34;96635.75;;;25.81;54.55
1401;BME280;46518;48.842;8.926;2022-08-18T13:07:03;96627.97;;;25.76;52.51
1401;BME280;46518;48.842;8.926;2022-08-18T13:09:35;96625.41;;;25.83;53.64
1401;BME280;46518;48.842;8.926;2022-08-18T13:12:20;96612.63;;;26.00;54.21
1401;BME280;46518;48.842;8.926;2022-08-18T13:14:50;96594.72;;;26.11;52.83
1401;BME280;46518;48.842;8.926;2022-08-18T13:17:22;96597.63;;;26.25;52.55
1401;BME280;46518;48.842;8.926;2022-08-18T13:20:01;96597.00;;;26.32;53.24
1401;BME280;46518;48.842;8.926;2022-08-18T13:22:30;96592.59;;;26.47;53.95
1401;BME280;46518;48.842;8.926;2022-08-18T13:25:14;96587.63;;;26.49;52.80
1401;BME280;46518;48.842;8.926;2022-08-18T13:27:58;96567.31;;;26.55;52.44
1401;BME280;46518;48.842;8.926;2022-08-18T13:30:28;96573.47;;;26.56;51.59
1401;BME280;46518;48.842;8.926;2022-08-18T13:33:00;96567.41;;;26.62;51.42
1401;BME280;46518;48.842;8.926;2022-08-18T13:35:49;96572.28;;;26.53;49.99
1401;BME280;46518;48.842;8.926;2022-08-18T13:38:21;96577.38;;;26.58;49.75
1401;BME280;46518;48.842;8.926;2022-08-18T13:40:56;96577.59;;;26.50;49.55
1401;BME280;46518;48.842;8.926;2022-08-18T13:43:29;96580.44;;;26.34;50.34
1401;BME280;46518;48.842;8.926;2022-08-18T13:46:00;96575.81;;;26.34;51.41
1401;BME280;46518;48.842;8.926;2022-08-18T13:48:32;96574.03;;;26.19;51.35
1401;BME280;46518;48.842;8.926;2022-08-18T13:51:02;96577.16;;;26.21;52.64
1401;BME280;46518;48.842;8.926;2022-08-18T13:53:35;96577.69;;;26.30;51.65
1401;BME280;46518;48.842;8.926;2022-08-18T13:56:23;96586.53;;;26.31;50.67
1401;BME280;46518;48.842;8.926;2022-08-18T13:58:57;96587.84;;;26.40;51.40
1401;BME280;46518;48.842;8.926;2022-08-18T14:01:26;96577.78;;;26.37;50.71
1401;BME280;46518;48.842;8.926;2022-08-18T14:04:16;96585.72;;;26.27;50.22
1401;BME280;46518;48.842;8.926;2022-08-18T14:06:47;96583.44;;;26.29;50.87
1401;BME280;46518;48.842;8.926;2022-08-18T14:09:17;96580.53;;;26.41;51.26
1401;BME280;46518;48.842;8.926;2022-08-18T14:12:02;96576.72;;;26.42;50.94
1401;BME280;46518;48.842;8.926;2022-08-18T14:14:32;96572.63;;;26.52;51.63
1401;BME280;46518;48.842;8.926;2022-08-18T14:17:02;96582.66;;;26.51;51.52